createdAt,value
2022-08-19T00:00:15.170Z,87.30
2022-08-19T00:02:50.448Z,87.50
2022-08-19T00:05:24.177Z,87.90
2022-08-19T00:07:53.812Z,88.30
2022-08-19T00:10:23.825Z,88.60
2022-08-19T00:12:50.671Z,88.70
2022-08-19T00:15:20.920Z,88.80
2022-08-19T00:17:50.647Z,88.70
2022-08-19T00:20:22.828Z,88.80
2022-08-19T00:22:52.768Z,88.90
2022-08-19T00:25:30.223Z,89.00
2022-08-19T00:27:57.767Z,88.90
2022-08-19T00:30:28.038Z,89.00
2022-08-19T00:33:02.837Z,89.00
2022-08-19T00:35:32.340Z,89.10
2022-08-19T00:38:04.399Z,89.00
2022-08-19T00:40:36.523Z,89.10
2022-08-19T00:43:22.666Z,89.30
2022-08-19T00:45:49.743Z,89.40
2022-08-19T00:48:28.939Z,89.60
2022-08-19T00:51:06.579Z,89.80
2022-08-19T00:53:39.477Z,90.10
2022-08-19T00:56:15.425Z,90.20
2022-08-19T00:58:51.704Z,90.30
2022-08-19T01:01:21.051Z,90.30
2022-08-19T01:03:56.977Z,90.50
2022-08-19T01:06:26.784Z,90.50
2022-08-19T01:09:00.860Z,90.80
2022-08-19T01:11:28.837Z,90.90
2022-08-19T01:13:55.991Z,91.00
2022-08-19T01:16:26.001Z,91.00
2022-08-19T01:21:41.107Z,91.10
2022-08-19T01:24:19.710Z,91.20
2022-08-19T01:26:58.517Z,91.20
2022-08-19T01:29:28.127Z,91.30
2022-08-19T01:31:58.713Z,91.30
2022-08-19T01:34:28.016Z,91.20
2022-08-19T01:36:57.609Z,91.40
2022-08-19T01:39:30.327Z,91.40
2022-08-19T01:42:00.102Z,91.50
2022-08-19T01:44:30.501Z,91.50
2022-08-19T01:47:01.297Z,91.60
2022-08-19T01:49:28.089Z,91.90
2022-08-19T01:51:57.992Z,91.90
2022-08-19T01:54:34.136Z,92.00
2022-08-19T01:57:13.540Z,92.00
2022-08-19T01:59:44.956Z,92.10
2022-08-19T02:02:17.740Z,92.40
2022-08-19T02:04:56.561Z,92.50
2022-08-19T02:07:26.361Z,92.70
2022-08-19T02:09:56.277Z,92.70
2022-08-19T02:12:38.029Z,92.60
2022-08-19T02:15:11.077Z,92.60
2022-08-19T02:17:41.690Z,92.80
2022-08-19T02:20:09.254Z,92.70
2022-08-19T02:22:39.104Z,92.80
2022-08-19T02:25:15.648Z,92.80
2022-08-19T02:27:45.375Z,92.80
2022-08-19T02:30:17.138Z,92.90
2022-08-19T02:32:47.320Z,92.90
2022-08-19T02:35:19.797Z,92.90
2022-08-19T02:37:53.099Z,92.90
2022-08-19T02:40:23.115Z,93.20
2022-08-19T02:42:53.307Z,93.30
2022-08-19T02:45:37.495Z,93.40
2022-08-19T02:48:21.179Z,93.50
2022-08-19T02:50:51.707Z,93.70
2022-08-19T02:53:28.478Z,93.80
2022-08-19T02:55:56.498Z,93.90
2022-08-19T02:58:30.102Z,93.90
2022-08-19T03:01:03.298Z,94.00
2022-08-19T03:03:30.418Z,94.10
2022-08-19T03:06:13.584Z,94.20
2022-08-19T03:08:44.182Z,94.20
2022-08-19T03:11:20.264Z,94.10
2022-08-19T03:13:47.805Z,94.50
2022-08-19T03:16:19.230Z,94.50
2022-08-19T03:18:49.225Z,94.50
2022-08-19T03:21:19.218Z,94.60
2022-08-19T03:23:57.149Z,94.70
2022-08-19T03:26:30.377Z,94.80
2022-08-19T03:29:04.914Z,94.90
2022-08-19T03:31:44.424Z,94.80
2022-08-19T03:34:31.040Z,95.00
2022-08-19T03:37:05.882Z,95.30
2022-08-19T03:39:42.293Z,95.60
2022-08-19T03:42:33.187Z,95.90
2022-08-19T03:50:40.997Z,96.10
2022-08-19T03:53:09.965Z,96.30
2022-08-19T03:55:42.686Z,96.30
2022-08-19T03:58:21.477Z,96.20
2022-08-19T04:00:58.454Z,96.10
2022-08-19T04:03:26.591Z,96.10
2022-08-19T04:05:59.422Z,96.20
2022-08-19T04:08:32.712Z,96.00
2022-08-19T04:10:59.522Z,96.10
2022-08-19T04:13:26.347Z,96.00
2022-08-19T04:15:56.191Z,96.10
2022-08-19T04:18:26.104Z,96.00
2022-08-19T04:20:57.169Z,96.20
2022-08-19T04:23:27.797Z,96.30
2022-08-19T04:25:59.438Z,96.40
2022-08-19T04:28:32.597Z,96.30
2022-08-19T04:31:15.210Z,96.40
2022-08-19T04:33:50.983Z,96.50
2022-08-19T04:36:24.272Z,96.40
2022-08-19T04:39:03.013Z,96.40
2022-08-19T04:41:49.626Z,96.50
2022-08-19T04:44:16.830Z,96.70
2022-08-19T04:46:51.675Z,96.70
2022-08-19T04:49:21.820Z,96.90
2022-08-19T04:51:48.969Z,97.10
2022-08-19T04:54:37.320Z,97.60
2022-08-19T04:57:07.745Z,97.50
2022-08-19T04:59:35.897Z,97.50
2022-08-19T05:02:03.254Z,97.60
2022-08-19T05:04:37.105Z,97.60
2022-08-19T05:07:13.936Z,97.70
2022-08-19T05:20:22.552Z,98.00
2022-08-19T05:22:50.952Z,97.90
2022-08-19T05:25:42.688Z,97.90
2022-08-19T05:33:57.117Z,97.80
2022-08-19T05:36:36.095Z,97.70
2022-08-19T05:39:04.747Z,97.00
2022-08-19T05:41:58.402Z,96.60
2022-08-19T05:47:15.429Z,96.40
2022-08-19T06:12:17.068Z,96.10
2022-08-19T06:36:02.430Z,96.30
2022-08-19T06:56:52.569Z,94.80
2022-08-19T08:42:29.121Z,82.90
2022-08-19T08:53:50.422Z,83.70
2022-08-19T08:59:48.882Z,83.60
2022-08-19T09:27:49.834Z,79.90
2022-08-19T10:02:30.481Z,75.90
2022-08-19T10:04:57.704Z,73.10
2022-08-19T10:07:36.116Z,71.70
2022-08-19T10:10:05.724Z,70.20
2022-08-19T10:15:17.554Z,69.40
2022-08-19T10:32:34.656Z,66.30
2022-08-19T10:35:06.101Z,67.50
2022-08-19T10:43:55.437Z,65.00
2022-08-19T10:49:26.541Z,66.00
2022-08-19T10:51:58.328Z,66.90
2022-08-19T10:58:22.605Z,65.80
2022-08-19T11:01:20.480Z,66.90
2022-08-19T11:12:42.273Z,67.60
2022-08-19T11:29:42.924Z,69.00
2022-08-19T11:37:44.377Z,69.60
2022-08-19T12:59:09.752Z,71.20
2022-08-19T13:04:23.508Z,70.70
2022-08-19T13:12:15.328Z,70.10
2022-08-19T13:23:58.415Z,71.50
2022-08-19T13:26:39.756Z,71.70
2022-08-19T13:30:18.029Z,71.90
2022-08-19T14:31:57.005Z,79.20
2022-08-19T14:37:52.936Z,78.40
2022-08-19T14:43:24.648Z,76.70
2022-08-19T14:45:54.580Z,77.20
2022-08-19T14:51:01.216Z,76.70
2022-08-19T14:53:34.261Z,76.80
2022-08-19T14:56:10.378Z,76.80
2022-08-19T15:04:21.775Z,76.90
2022-08-19T15:13:04.740Z,77.30
2022-08-19T15:16:06.928Z,77.80
2022-08-19T15:50:49.292Z,78.20
2022-08-19T16:22:05.980Z,78.60
2022-08-19T16:24:44.539Z,79.10
2022-08-19T16:27:20.294Z,79.10
2022-08-19T16:29:58.904Z,80.10
2022-08-19T16:32:25.870Z,80.80
2022-08-19T16:35:17.513Z,80.50
2022-08-19T16:37:56.323Z,80.70
2022-08-19T16:40:23.568Z,80.80
2022-08-19T16:43:10.942Z,81.10
2022-08-19T16:48:29.185Z,81.30
2022-08-19T16:51:01.346Z,81.80
2022-08-19T16:53:31.449Z,82.00
2022-08-19T16:56:17.993Z,81.80
2022-08-19T16:58:46.090Z,81.10
2022-08-19T17:01:26.919Z,80.40
2022-08-19T17:03:54.946Z,80.30
2022-08-19T17:06:27.671Z,80.70
2022-08-19T17:09:01.841Z,80.80
2022-08-19T17:17:07.148Z,80.00
2022-08-19T17:33:48.976Z,81.10
2022-08-19T17:36:51.673Z,81.10
2022-08-19T17:39:08.799Z,81.40
2022-08-19T17:41:37.909Z,81.40
2022-08-19T17:44:06.502Z,81.70
2022-08-19T17:47:15.520Z,81.70
2022-08-19T17:49:42.216Z,82.50
2022-08-19T17:55:01.389Z,83.40
2022-08-19T18:00:53.857Z,83.80
2022-08-19T18:05:48.619Z,84.40
2022-08-19T18:08:15.464Z,84.50
2022-08-19T18:10:42.519Z,84.40
2022-08-19T18:15:52.591Z,84.30
2022-08-19T18:21:07.451Z,84.20
2022-08-19T18:24:01.951Z,84.40
2022-08-19T18:41:12.435Z,84.00
2022-08-19T18:46:34.977Z,84.30
2022-08-19T18:49:04.263Z,84.30
2022-08-19T18:51:32.099Z,84.30
2022-08-19T18:53:59.781Z,84.30
2022-08-19T18:56:28.167Z,84.40
2022-08-19T18:59:05.655Z,84.50
2022-08-19T19:01:38.809Z,84.80
2022-08-19T19:12:04.300Z,84.70
2022-08-19T19:14:50.986Z,84.80
2022-08-19T19:17:33.374Z,85.00
2022-08-19T19:20:08.915Z,85.30
2022-08-19T19:22:35.923Z,85.30
2022-08-19T19:25:02.853Z,85.40
2022-08-19T19:34:07.495Z,85.70
2022-08-19T19:37:08.383Z,85.80
2022-08-19T19:42:53.629Z,86.00
2022-08-19T19:45:44.003Z,86.10
2022-08-19T19:50:56.625Z,86.20
2022-08-19T19:53:46.558Z,86.30
2022-08-19T19:56:23.736Z,86.40
2022-08-19T20:42:16.500Z,88.20
2022-08-19T21:22:43.062Z,88.30
2022-08-19T21:25:22.191Z,88.40
2022-08-19T21:28:29.910Z,88.50
